Terminal Aerodrome Forecast
Issued by NWS

Home | Current Version | Previous Version | Text Only | Print | Product List | Glossary Off
Versions: 1 2 3 4 5 6 7 8 9 10 11 12 13 14 15 16 17 18 19 20 21 22 23 24 25 26 27 28 29 30

000
FTUS43 KGRB 282300
TAFRHI
TAF
KRHI 282328Z 2900/2924 22003KT P6SM SCT250
     FM290600 27003KT 4SM BR SCT006 SCT050
      TEMPO 2906/2909 2SM BR BKN006
     FM290900 33004KT 3SM BR VCSH SCT009 OVC020
      TEMPO 2911/2915 2SM -SHRA BR BKN009
     FM291500 01008G15KT P6SM -SHRA SCT008 OVC015
      TEMPO 2915/2919 3SM -SHRA BR OVC008
     FM292100 02007KT P6SM BKN020=

USA.gov is the U.S. government's official web portal to all federal, state and local government web resources and services.